Latest Weather Observations for Coondewanna

IDW60801

Issued at 5:33 pm WST Sunday 20 August 2017 (issued every 30 minutes, with the page automatically refreshed every 10 minutes)

About weather observations | Map of weather stations | Latest weather observations for WA | Other Formats
Station Details ID: 505051 Name: COONDEWANNA Lat: -22.96 Lon: 118.81 Height: 697.63 m
Data from the previous 72 hours. | See also: Recent months for locations in Western Australia
Date/Time
WST
Temp
°C
App
Temp
°C
Dew
Point
°C
Rel
Hum
%
Delta-T
°C
Wind Press
QNH
hPa
Press
MSL
hPa
Rain since
9am
mm
Dir  Spd
km/h
Gust
km/h
Spd
kts
Gust
kts
20/05:30pm 21.9 17.2 -2.0 20 10.7 SSE 13 19 7 10 1018.4 1016.2 0.0
20/05:00pm 22.4 17.3 -1.6 20 10.9 SE 15 22 8 12 1018.3 1016.1 0.0
20/04:30pm 22.9 18.3 -1.2 20 11.1 SE 13 24 7 13 1017.9 1015.8 0.0
20/04:00pm 22.5 17.2 -0.3 22 10.6 S 17 22 9 12 1017.8 1015.7 0.0
20/03:30pm 22.5 17.6 -0.3 22 10.6 S 15 24 8 13 1017.9 1015.8 0.0
20/03:00pm 22.0 17.2 0.5 24 10.1 SE 15 22 8 12 1017.9 1015.8 0.0
20/02:30pm 22.4 17.7 0.9 24 10.2 SSE 15 24 8 13 1018.3 1016.1 0.0
20/02:00pm 21.7 17.8 1.4 26 9.7 SE 11 20 6 11 1018.5 1016.4 0.0
20/01:30pm 21.4 17.5 1.1 26 9.6 SSW 11 20 6 11 1018.9 1016.8 0.0
20/01:00pm 20.4 15.4 1.3 28 9.0 SSE 17 26 9 14 1019.3 1017.2 0.0
20/12:30pm 19.8 15.2 1.3 29 8.7 SE 15 24 8 13 1020.0 1017.9 0.0
20/12:00pm 19.6 15.4 1.6 30 8.5 SE 13 22 7 12 1020.5 1018.4 0.0
20/11:30am 18.9 13.5 1.4 31 8.2 SE 19 28 10 15 1021.0 1019.0 0.0
20/11:00am 18.4 13.5 1.9 33 7.7 SSE 17 24 9 13 1021.5 1019.4 0.0
20/10:30am 17.5 12.9 1.5 34 7.4 SE 15 26 8 14 1021.9 1019.8 0.0
20/10:00am 16.9 12.0 1.8 36 7.0 SSE 17 24 9 13 1022.1 1020.0 0.0
20/09:30am 16.3 10.4 2.0 38 6.6 SSE 22 30 12 16 1022.5 1020.5 0.0
20/09:00am 15.0 9.5 1.9 41 6.0 SSE 20 24 11 13 1022.5 1020.5 0.0
20/08:30am 14.0 9.5 2.3 45 5.4 SSE 15 24 8 13 1022.5 1020.5 0.0
20/08:00am 13.2 7.4 2.1 47 5.0 SSE 22 30 12 16 1022.3 1020.3 0.0
20/07:30am 12.6 8.9 2.5 50 4.6 S 11 15 6 8 1022.2 1020.1 0.0
20/07:00am 12.6 7.8 2.5 50 4.6 S 17 26 9 14 1021.7 1019.6 0.0
20/06:30am 12.6 7.8 2.5 50 4.6 S 17 24 9 13 1021.3 1019.2 0.0
20/06:00am 13.0 8.2 2.6 49 4.7 S 17 22 9 12 1020.9 1018.8 0.0
20/05:30am 13.3 8.2 2.8 49 4.8 S 19 26 10 14 1020.7 1018.6 0.0
20/05:00am 13.6 9.3 3.4 50 4.8 S 15 24 8 13 1020.4 1018.3 0.0
20/04:30am 13.9 8.9 3.7 50 4.8 S 19 28 10 15 1020.1 1018.0 0.0
20/04:00am 14.0 10.7 4.3 52 4.6 SSW 11 19 6 10 1020.0 1017.9 0.0
20/03:30am 13.7 10.7 4.3 53 4.5 SSW 9 13 5 7 1019.9 1017.8 0.0
20/03:00am 14.1 10.8 4.7 53 4.5 SSW 11 13 6 7 1019.9 1017.8 0.0
20/02:30am 14.5 10.9 5.0 53 4.6 SSW 13 17 7 9 1019.9 1017.8 0.0
20/02:00am 14.6 11.9 5.7 55 4.4 SSW 9 13 5 7 1019.8 1017.7 0.0
20/01:30am 15.0 12.0 5.8 54 4.6 SSW 11 15 6 8 1019.6 1017.5 0.0
20/01:00am 15.2 11.8 6.0 54 4.6 S 13 19 7 10 1019.4 1017.3 0.0
20/12:30am 14.0 11.2 5.1 55 4.3 SSW 9 11 5 6 1019.4 1017.3 0.0
20/12:00am 14.5 11.2 4.5 51 4.8 SSW 11 13 6 7 1019.4 1017.3 0.0
 
Date/Time
WST
Temp
°C
App
Temp
°C
Dew
Point
°C
Rel
Hum
%
Delta-T
°C
Wind Press
QNH
hPa
Press
MSL
hPa
Rain since
9am
mm
Dir  Spd
km/h
Gust
km/h
Spd
kts
Gust
kts
19/11:30pm 15.3 12.0 4.7 49 5.2 SSW 11 13 6 7 1019.4 1017.3 0.0
19/11:00pm 15.5 12.2 4.3 47 5.4 SW 11 13 6 7 1019.3 1017.2 0.0
19/10:30pm 16.6 13.3 4.6 45 5.9 WSW 11 13 6 7 1019.3 1017.2 0.0
19/10:00pm 16.5 13.5 4.2 44 6.0 WSW 9 11 5 6 1019.3 1017.2 0.0
19/09:30pm 17.3 13.6 4.3 42 6.4 SW 13 13 7 7 1019.1 1017.0 0.0
19/09:00pm 17.6 14.6 4.2 41 6.6 SW 9 11 5 6 1019.0 1016.9 0.0
19/08:30pm 18.8 15.9 4.6 39 7.1 SSW 9 11 5 6 1018.9 1016.8 0.0
19/08:00pm 19.5 15.8 4.4 37 7.5 SW 13 17 7 9 1018.7 1016.6 0.0
19/07:30pm 20.2 16.5 4.7 36 7.8 WSW 13 17 7 9 1018.3 1016.1 0.0
19/07:00pm 20.8 17.2 4.8 35 8.1 SW 13 17 7 9 1017.8 1015.7 0.0
19/06:30pm 21.5 18.3 5.0 34 8.4 SW 11 15 6 8 1017.5 1015.4 0.0
19/06:00pm 22.3 18.8 5.3 33 8.8 SW 13 17 7 9 1017.1 1014.9 0.0
19/05:30pm 23.5 18.9 5.4 31 9.4 SW 19 28 10 15 1016.8 1014.6 0.0
19/05:00pm 24.1 18.4 5.0 29 9.9 SW 24 30 13 16 1016.4 1014.3 0.0
19/04:30pm 25.0 18.9 4.7 27 10.5 WSW 26 35 14 19 1016.1 1014.0 0.0
19/04:00pm 26.6 20.5 5.0 25 11.4 WSW 26 32 14 17 1015.8 1013.6 0.0
19/03:30pm 27.1 21.1 5.4 25 11.5 WSW 26 33 14 18 1015.6 1013.4 0.0
19/03:00pm 27.3 21.4 5.6 25 11.6 WSW 26 32 14 17 1015.6 1013.4 0.0
19/02:30pm 27.5 22.0 5.7 25 11.7 WSW 24 32 13 17 1015.6 1013.4 0.0
19/02:00pm 28.1 23.4 6.2 25 11.9 W 20 28 11 15 1015.8 1013.6 0.0
19/01:30pm 26.9 22.3 5.8 26 11.3 W 19 30 10 16 1016.0 1013.9 0.0
19/01:00pm 27.4 23.3 6.2 26 11.4 WNW 17 28 9 15 1016.2 1014.1 0.0
19/12:30pm 27.0 22.5 5.9 26 11.3 NW 19 33 10 18 1016.7 1014.5 0.0
19/12:00pm 26.7 22.5 5.6 26 11.2 WNW 17 26 9 14 1017.1 1014.9 0.0
19/11:30am 24.8 21.3 7.4 33 9.5 W 15 26 8 14 1017.7 1015.6 0.0
19/11:00am 23.7 20.6 7.3 35 8.8 WNW 13 24 7 13 1018.0 1015.9 0.0
19/10:30am 22.9 19.9 7.8 38 8.2 NNW 13 22 7 12 1018.7 1016.6 0.0
19/10:00am 22.0 20.3 8.5 42 7.4 W 7 11 4 6 1018.9 1016.8 0.0
19/09:30am 20.4 19.0 9.0 48 6.2 W 6 15 3 8 1019.3 1017.2 0.0
19/09:00am 20.0 18.2 9.6 51 5.7 WSW 9 15 5 8 1019.4 1017.3 0.0
19/08:30am 18.2 15.9 9.0 55 5.0 WSW 11 15 6 8 1019.4 1017.3 0.0
19/08:00am 16.3 14.7 7.8 57 4.4 NNE 6 9 3 5 1019.4 1017.3 0.0
19/07:30am 13.5 11.9 4.4 54 4.3 NNE 2 6 1 3 1019.3 1017.2 0.0
19/07:00am 10.0 8.4 2.4 59 3.4 CALM 0 0 0 0 1019.2 1017.1 0.0
19/06:30am 8.7 6.3 2.1 63 2.9 NNE 4 7 2 4 1018.9 1016.8 0.0
19/06:00am 9.3 6.5 1.9 60 3.2 NNE 6 7 3 4 1018.7 1016.6 0.0
19/05:30am 9.5 6.8 2.6 62 3.1 NNE 6 7 3 4 1018.5 1016.4 0.0
19/05:00am 9.8 6.9 1.7 57 3.5 NNE 6 7 3 4 1018.3 1016.1 0.0
19/04:30am 10.7 7.9 2.0 55 3.8 NNE 6 7 3 4 1018.0 1015.9 0.0
19/04:00am 12.3 9.0 2.7 52 4.4 NNE 9 11 5 6 1017.9 1015.8 0.0
19/03:30am 12.4 9.4 2.3 50 4.6 NNE 7 9 4 5 1017.9 1015.8 0.0
19/03:00am 12.9 9.6 2.5 49 4.7 NNE 9 9 5 5 1018.1 1016.0 0.0
19/02:30am 12.7 9.8 2.6 50 4.6 NNE 7 9 4 5 1018.1 1016.0 0.0
19/02:00am 12.6 9.6 2.2 49 4.7 NNE 7 9 4 5 1018.1 1016.0 0.0
19/01:30am 13.2 10.5 2.4 48 4.9 NNE 6 7 3 4 1018.3 1016.1 0.0
19/01:00am 13.7 10.7 2.3 46 5.2 NNE 7 9 4 5 1018.3 1016.1 0.0
19/12:30am 13.6 10.6 2.2 46 5.2 N 7 9 4 5 1018.4 1016.2 0.0
19/12:00am 13.1 10.1 2.1 47 5.0 N 7 7 4 4 1018.6 1016.5 0.0
 
Date/Time
WST
Temp
°C
App
Temp
°C
Dew
Point
°C
Rel
Hum
%
Delta-T
°C
Wind Press
QNH
hPa
Press
MSL
hPa
Rain since
9am
mm
Dir  Spd
km/h
Gust
km/h
Spd
kts
Gust
kts
18/11:30pm 13.2 10.4 1.8 46 5.1 N 6 9 3 5 1018.7 1016.6 0.0
18/11:00pm 13.0 11.2 1.0 44 5.3 CALM 0 0 0 0 1018.7 1016.6 0.0
18/10:30pm 14.0 11.4 1.0 41 5.8 N 4 7 2 4 1018.6 1016.5 0.0
18/10:00pm 15.5 12.4 1.6 39 6.3 N 7 7 4 4 1018.8 1016.7 0.0
18/09:30pm 15.0 12.1 1.5 40 6.1 N 6 7 3 4 1018.8 1016.7 0.0
18/09:00pm 17.0 14.1 1.4 35 7.2 N 6 7 3 4 1018.8 1016.7 0.0
18/08:30pm 16.6 14.8 1.5 36 6.9 CALM 0 0 0 0 1018.7 1016.6 0.0
18/08:00pm 17.5 15.7 1.1 33 7.5 CALM 0 0 0 0 1018.6 1016.5 0.0
18/07:30pm 18.7 16.9 1.2 31 8.1 CALM 0 0 0 0 1018.1 1016.0 0.0
18/07:00pm 20.2 17.8 2.1 30 8.7 N 4 7 2 4 1017.8 1015.7 0.0
18/06:30pm 22.6 19.6 2.1 26 10.0 N 7 9 4 5 1017.3 1015.2 0.0
18/06:00pm 24.6 21.0 2.7 24 10.9 NNW 11 17 6 9 1016.8 1014.6 0.0
18/05:30pm 26.0 21.1 2.0 21 11.9 N 17 26 9 14 1016.7 1014.5 0.0
18/05:00pm 27.0 22.1 2.1 20 12.5 NNW 17 28 9 15 1016.4 1014.3 0.0
18/04:30pm 27.2 21.4 2.3 20 12.6 N 22 35 12 19 1016.2 1014.1 0.0
18/04:00pm 27.7 21.8 2.0 19 12.9 NNW 22 33 12 18 1016.2 1014.1 0.0
18/03:30pm 27.5 21.4 2.6 20 12.7 N 24 41 13 22 1016.2 1014.1 0.0
18/03:00pm 28.1 22.3 2.3 19 13.1 N 22 33 12 18 1016.2 1014.1 0.0
18/02:30pm 27.6 22.4 2.6 20 12.7 NNE 19 28 10 15 1016.2 1014.1 0.0
18/02:00pm 27.2 20.8 3.0 21 12.3 N 26 39 14 21 1016.7 1014.5 0.0
18/01:30pm 26.5 19.3 3.1 22 11.9 N 30 43 16 23 1016.8 1014.6 0.0
18/01:00pm 26.3 20.6 2.9 22 11.8 NNE 22 35 12 19 1017.2 1015.0 0.0
18/12:30pm 26.7 20.6 2.6 21 12.2 N 24 37 13 20 1017.5 1015.4 0.0
18/12:00pm 25.6 19.7 1.7 21 11.8 N 22 35 12 19 1017.9 1015.8 0.0
18/11:30am 24.8 19.3 1.7 22 11.3 NNE 20 39 11 21 1018.6 1016.5 0.0
18/11:00am 24.1 18.7 1.1 22 11.1 NE 19 37 10 20 1019.0 1016.9 0.0
18/10:30am 23.2 17.2 0.9 23 10.7 NE 22 32 12 17 1019.3 1017.2 0.0
18/10:00am 21.8 16.2 -0.2 23 10.2 ENE 19 28 10 15 1019.6 1017.5 0.0
18/09:30am 21.1 15.3 -0.2 24 9.8 ENE 20 30 11 16 1019.9 1017.8 0.0
18/09:00am 19.9 14.2 -0.7 25 9.3 ENE 19 28 10 15 1019.8 1017.7 -
18/08:30am 18.7 13.8 -0.7 27 8.7 ENE 15 20 8 11 1019.5 1017.4 -
18/08:00am 17.5 12.1 -1.2 28 8.2 ENE 17 24 9 13 1019.4 1017.3 -
18/07:30am 16.1 12.3 -1.0 31 7.4 NE 9 17 5 9 1019.2 1017.1 -
18/07:00am 13.9 10.1 -0.5 37 6.2 N 9 11 5 6 1018.8 1016.7 -
18/06:30am 14.7 11.2 -1.0 34 6.7 NE 7 11 4 6 1018.5 1016.4 -
18/06:00am 15.5 10.6 -0.7 33 7.0 ENE 15 24 8 13 1017.9 1015.8 -
18/05:30am 15.4 11.3 -0.4 34 6.9 ENE 11 17 6 9 1017.5 1015.4 -
18/05:00am 15.8 11.3 0.0 34 7.0 ENE 13 20 7 11 1017.4 1015.3 -
18/04:30am 15.9 11.9 0.5 35 6.9 E 11 19 6 10 1017.2 1015.0 -
18/04:00am 16.2 13.0 0.7 35 7.0 ENE 7 13 4 7 1017.1 1014.9 -
18/03:30am 16.6 12.3 1.1 35 7.1 E 13 17 7 9 1016.9 1014.7 -
18/03:00am 16.6 12.4 1.5 36 6.9 E 13 19 7 10 1017.0 1014.8 0.0
18/02:30am 16.5 11.9 1.4 36 6.9 E 15 20 8 11 1017.0 1014.8 -
18/02:00am 16.6 12.1 1.9 37 6.8 E 15 24 8 13 1017.0 1014.8 -
18/01:30am 16.9 12.0 1.8 36 7.0 E 17 22 9 12 1017.1 1014.9 -
18/01:00am 17.2 11.9 2.0 36 7.1 E 19 24 10 13 1017.1 1014.9 -
18/12:30am 17.4 12.2 2.2 36 7.1 E 19 26 10 14 1017.1 1014.9 -
18/12:00am 17.5 13.0 2.3 36 7.2 E 15 20 8 11 1017.3 1015.2 -
 
Date/Time
WST
Temp
°C
App
Temp
°C
Dew
Point
°C
Rel
Hum
%
Delta-T
°C
Wind Press
QNH
hPa
Press
MSL
hPa
Rain since
9am
mm
Dir  Spd
km/h
Gust
km/h
Spd
kts
Gust
kts
17/11:30pm 18.2 13.0 2.5 35 7.5 E 19 26 10 14 1017.4 1015.3 -
17/11:00pm 18.2 13.4 2.5 35 7.5 E 17 20 9 11 1017.6 1015.5 -
17/10:30pm 16.7 13.0 2.3 38 6.7 E 11 15 6 8 1017.7 1015.6 -
17/10:00pm 16.0 12.6 2.1 39 6.4 ENE 9 11 5 6 1017.8 1015.7 -
17/09:30pm 16.5 13.2 2.2 38 6.7 ENE 9 11 5 6 1017.7 1015.6 -
17/09:00pm 16.8 13.4 2.0 37 6.9 NE 9 9 5 5 1017.6 1015.5 0.0
17/08:30pm 17.3 13.9 2.1 36 7.1 NE 9 11 5 6 1017.6 1015.5 -
17/08:00pm 17.9 14.9 1.8 34 7.5 NE 7 7 4 4 1017.4 1015.3 -
17/07:30pm 19.0 15.3 2.4 33 7.9 NE 11 13 6 7 1017.2 1015.0 -
17/07:00pm 20.1 16.7 2.0 30 8.6 ENE 9 13 5 7 1016.9 1014.7 -
17/06:30pm 20.8 17.1 2.1 29 9.0 NE 11 15 6 8 1016.5 1014.4 -
17/06:00pm 22.0 18.3 2.2 27 9.6 NE 11 15 6 8 1016.2 1014.1 -

Other Formats:

Comma delimited format used in spreadsheet applications
http://www.bom.gov.au/fwo/IDW60801/IDW60801.99312.axf

JavaScript Object Notation format (JSON) in row-major order
http://www.bom.gov.au/fwo/IDW60801/IDW60801.99312.json